sensor_id;sensor_type;location;lat;lon;timestamp;pressure;altitude;pressure_sealevel;temperature;humidity
2681;BME280;1350;42.134;24.708;2022-08-03T00:01:01;99240.94;;;25.74;78.85
2681;BME280;1350;42.134;24.708;2022-08-03T00:03:27;99240.56;;;25.77;78.94
2681;BME280;1350;42.134;24.708;2022-08-03T00:05:54;99238.09;;;25.82;78.34
2681;BME280;1350;42.134;24.708;2022-08-03T00:08:23;99232.78;;;25.74;78.73
2681;BME280;1350;42.134;24.708;2022-08-03T00:10:50;99230.81;;;25.82;78.23
2681;BME280;1350;42.134;24.708;2022-08-03T00:13:17;99232.66;;;25.67;77.58
2681;BME280;1350;42.134;24.708;2022-08-03T00:15:44;99232.34;;;25.48;78.54
2681;BME280;1350;42.134;24.708;2022-08-03T00:18:11;99235.69;;;25.27;79.07
2681;BME280;1350;42.134;24.708;2022-08-03T00:20:37;99232.19;;;25.19;80.24
2681;BME280;1350;42.134;24.708;2022-08-03T00:23:04;99242.34;;;25.25;79.41
2681;BME280;1350;42.134;24.708;2022-08-03T00:25:33;99236.00;;;25.32;79.51
2681;BME280;1350;42.134;24.708;2022-08-03T00:28:00;99232.00;;;25.20;80.19
2681;BME280;1350;42.134;24.708;2022-08-03T00:30:27;99232.31;;;25.25;79.67
2681;BME280;1350;42.134;24.708;2022-08-03T00:32:54;99229.78;;;25.24;80.22
2681;BME280;1350;42.134;24.708;2022-08-03T00:35:21;99239.13;;;25.21;79.68
2681;BME280;1350;42.134;24.708;2022-08-03T00:37:48;99225.19;;;25.24;80.25
2681;BME280;1350;42.134;24.708;2022-08-03T00:40:17;99236.09;;;24.94;81.06
2681;BME280;1350;42.134;24.708;2022-08-03T00:42:50;99238.75;;;24.71;82.90
2681;BME280;1350;42.134;24.708;2022-08-03T00:45:19;99239.75;;;24.78;83.08
2681;BME280;1350;42.134;24.708;2022-08-03T00:47:46;99243.78;;;24.82;83.21
2681;BME280;1350;42.134;24.708;2022-08-03T00:50:13;99240.06;;;24.83;83.24
2681;BME280;1350;42.134;24.708;2022-08-03T00:52:40;99237.47;;;24.89;82.54
2681;BME280;1350;42.134;24.708;2022-08-03T00:55:08;99250.97;;;24.75;83.91
2681;BME280;1350;42.134;24.708;2022-08-03T00:57:35;99248.97;;;24.61;85.15
2681;BME280;1350;42.134;24.708;2022-08-03T01:00:05;99237.31;;;24.52;85.72
2681;BME280;1350;42.134;24.708;2022-08-03T01:02:32;99233.56;;;24.61;85.61
2681;BME280;1350;42.134;24.708;2022-08-03T01:04:59;99243.19;;;24.64;85.31
2681;BME280;1350;42.134;24.708;2022-08-03T01:07:36;99242.06;;;24.50;85.63
2681;BME280;1350;42.134;24.708;2022-08-03T01:10:12;99240.50;;;24.56;85.52
2681;BME280;1350;42.134;24.708;2022-08-03T01:12:46;99235.41;;;24.69;85.75
2681;BME280;1350;42.134;24.708;2022-08-03T01:15:20;99240.13;;;24.75;84.69
2681;BME280;1350;42.134;24.708;2022-08-03T01:17:54;99239.03;;;24.84;84.15
2681;BME280;1350;42.134;24.708;2022-08-03T01:20:24;99237.53;;;24.81;83.24
2681;BME280;1350;42.134;24.708;2022-08-03T01:26:02;99241.00;;;24.21;88.03
2681;BME280;1350;42.134;24.708;2022-08-03T01:29:03;99246.75;;;24.18;88.76
2681;BME280;1350;42.134;24.708;2022-08-03T01:31:39;99243.72;;;24.13;89.40
2681;BME280;1350;42.134;24.708;2022-08-03T01:34:10;99246.13;;;24.08;90.14
2681;BME280;1350;42.134;24.708;2022-08-03T01:36:42;99241.19;;;24.11;89.84
2681;BME280;1350;42.134;24.708;2022-08-03T01:39:10;99237.13;;;24.15;89.42
2681;BME280;1350;42.134;24.708;2022-08-03T01:41:41;99249.50;;;24.10;89.70
2681;BME280;1350;42.134;24.708;2022-08-03T01:44:11;99248.44;;;24.19;89.56
2681;BME280;1350;42.134;24.708;2022-08-03T01:46:40;99242.56;;;23.91;91.41
2681;BME280;1350;42.134;24.708;2022-08-03T01:49:10;99239.56;;;23.78;91.51
2681;BME280;1350;42.134;24.708;2022-08-03T01:51:41;99242.59;;;23.67;91.92
2681;BME280;1350;42.134;24.708;2022-08-03T01:54:09;99248.53;;;23.55;93.78
2681;BME280;1350;42.134;24.708;2022-08-03T01:56:37;99245.84;;;23.39;94.17
2681;BME280;1350;42.134;24.708;2022-08-03T01:59:06;99248.03;;;23.35;94.88
2681;BME280;1350;42.134;24.708;2022-08-03T02:01:35;99245.84;;;23.39;94.66
2681;BME280;1350;42.134;24.708;2022-08-03T02:04:05;99238.56;;;23.55;93.63
2681;BME280;1350;42.134;24.708;2022-08-03T02:06:34;99239.56;;;23.54;93.82
2681;BME280;1350;42.134;24.708;2022-08-03T02:09:02;99247.13;;;23.99;92.39
2681;BME280;1350;42.134;24.708;2022-08-03T02:11:32;99249.69;;;23.92;90.91
2681;BME280;1350;42.134;24.708;2022-08-03T02:14:01;99252.06;;;23.87;90.56
2681;BME280;1350;42.134;24.708;2022-08-03T02:16:30;99256.09;;;23.91;91.27
2681;BME280;1350;42.134;24.708;2022-08-03T02:18:59;99247.63;;;24.18;90.20
2681;BME280;1350;42.134;24.708;2022-08-03T02:21:31;99245.47;;;23.98;89.77
2681;BME280;1350;42.134;24.708;2022-08-03T02:23:58;99252.75;;;23.89;89.95
2681;BME280;1350;42.134;24.708;2022-08-03T02:26:28;99255.09;;;24.00;88.86
2681;BME280;1350;42.134;24.708;2022-08-03T02:28:57;99250.97;;;24.20;88.95
2681;BME280;1350;42.134;24.708;2022-08-03T02:31:28;99247.44;;;24.20;88.85
2681;BME280;1350;42.134;24.708;2022-08-03T02:33:59;99255.78;;;24.02;87.50
2681;BME280;1350;42.134;24.708;2022-08-03T02:36:31;99251.56;;;23.84;87.48
2681;BME280;1350;42.134;24.708;2022-08-03T02:39:00;99248.31;;;23.88;88.64
2681;BME280;1350;42.134;24.708;2022-08-03T02:41:31;99249.50;;;24.10;87.65
2681;BME280;1350;42.134;24.708;2022-08-03T02:44:02;99250.28;;;24.26;87.17
2681;BME280;1350;42.134;24.708;2022-08-03T02:46:36;99254.03;;;24.64;85.34
2681;BME280;1350;42.134;24.708;2022-08-03T02:49:04;99256.63;;;24.49;85.21
2681;BME280;1350;42.134;24.708;2022-08-03T02:51:34;99257.16;;;24.83;84.82
2681;BME280;1350;42.134;24.708;2022-08-03T02:54:03;99250.03;;;24.91;83.18
2681;BME280;1350;42.134;24.708;2022-08-03T02:56:30;99253.56;;;24.91;84.00
2681;BME280;1350;42.134;24.708;2022-08-03T02:58:58;99254.38;;;25.00;83.02
2681;BME280;1350;42.134;24.708;2022-08-03T03:01:27;99260.03;;;24.51;83.56
2681;BME280;1350;42.134;24.708;2022-08-03T03:03:56;99276.75;;;24.08;86.99
2681;BME280;1350;42.134;24.708;2022-08-03T03:06:23;99266.78;;;24.01;89.04
2681;BME280;1350;42.134;24.708;2022-08-03T03:08:53;99273.75;;;24.50;87.75
2681;BME280;1350;42.134;24.708;2022-08-03T03:11:22;99266.56;;;24.65;85.79
2681;BME280;1350;42.134;24.708;2022-08-03T03:13:50;99275.06;;;24.62;85.41
2681;BME280;1350;42.134;24.708;2022-08-03T03:16:17;99267.16;;;24.52;85.70
2681;BME280;1350;42.134;24.708;2022-08-03T03:18:45;99270.84;;;24.59;85.95
2681;BME280;1350;42.134;24.708;2022-08-03T03:21:15;99269.03;;;24.44;86.17
2681;BME280;1350;42.134;24.708;2022-08-03T03:23:43;99269.16;;;23.96;87.12
2681;BME280;1350;42.134;24.708;2022-08-03T03:26:13;99273.03;;;23.93;88.05
2681;BME280;1350;42.134;24.708;2022-08-03T03:28:40;99281.84;;;23.95;87.98
2681;BME280;1350;42.134;24.708;2022-08-03T03:31:07;99283.38;;;23.98;87.79
2681;BME280;1350;42.134;24.708;2022-08-03T03:33:35;99294.56;;;24.11;86.57
2681;BME280;1350;42.134;24.708;2022-08-03T03:36:03;99286.53;;;24.33;86.40
2681;BME280;1350;42.134;24.708;2022-08-03T03:38:31;99291.69;;;24.67;85.03
2681;BME280;1350;42.134;24.708;2022-08-03T03:41:00;99296.38;;;24.81;84.20
2681;BME280;1350;42.134;24.708;2022-08-03T03:43:29;99299.50;;;24.92;83.88
2681;BME280;1350;42.134;24.708;2022-08-03T03:45:56;99309.53;;;24.92;84.00
2681;BME280;1350;42.134;24.708;2022-08-03T03:48:24;99309.69;;;24.44;84.76
2681;BME280;1350;42.134;24.708;2022-08-03T03:50:54;99309.59;;;24.29;86.40
2681;BME280;1350;42.134;24.708;2022-08-03T03:53:23;99308.91;;;24.27;86.96
2681;BME280;1350;42.134;24.708;2022-08-03T03:55:51;99313.97;;;24.38;86.74
2681;BME280;1350;42.134;24.708;2022-08-03T03:58:19;99317.69;;;24.37;86.64
2681;BME280;1350;42.134;24.708;2022-08-03T04:00:48;99320.44;;;24.29;86.82
2681;BME280;1350;42.134;24.708;2022-08-03T04:03:14;99319.25;;;24.24;86.82
2681;BME280;1350;42.134;24.708;2022-08-03T04:05:41;99318.09;;;24.18;87.38
2681;BME280;1350;42.134;24.708;2022-08-03T04:08:26;99317.75;;;24.13;87.41
2681;BME280;1350;42.134;24.708;2022-08-03T04:11:13;99313.34;;;23.80;87.63
2681;BME280;1350;42.134;24.708;2022-08-03T04:13:46;99312.84;;;23.77;88.74
2681;BME280;1350;42.134;24.708;2022-08-03T04:16:18;99315.34;;;23.94;88.68
2681;BME280;1350;42.134;24.708;2022-08-03T04:18:49;99323.97;;;24.22;87.17
2681;BME280;1350;42.134;24.708;2022-08-03T04:21:21;99322.28;;;24.37;86.29
2681;BME280;1350;42.134;24.708;2022-08-03T04:23:51;99334.66;;;24.23;86.26
2681;BME280;1350;42.134;24.708;2022-08-03T04:26:21;99335.72;;;24.06;87.35
2681;BME280;1350;42.134;24.708;2022-08-03T04:28:50;99336.19;;;23.94;88.99
2681;BME280;1350;42.134;24.708;2022-08-03T04:31:22;99342.13;;;23.97;89.28
2681;BME280;1350;42.134;24.708;2022-08-03T04:33:51;99335.88;;;24.05;89.60
2681;BME280;1350;42.134;24.708;2022-08-03T04:36:21;99345.19;;;24.02;89.22
2681;BME280;1350;42.134;24.708;2022-08-03T04:38:55;99339.41;;;23.73;88.96
2681;BME280;1350;42.134;24.708;2022-08-03T04:41:24;99337.72;;;23.64;89.31
2681;BME280;1350;42.134;24.708;2022-08-03T04:43:53;99343.47;;;23.77;89.18
2681;BME280;1350;42.134;24.708;2022-08-03T04:46:23;99343.97;;;23.89;89.21
2681;BME280;1350;42.134;24.708;2022-08-03T04:48:51;99346.88;;;24.03;88.90
2681;BME280;1350;42.134;24.708;2022-08-03T04:51:19;99347.66;;;24.36;87.40
2681;BME280;1350;42.134;24.708;2022-08-03T04:53:46;99350.41;;;24.28;85.45
2681;BME280;1350;42.134;24.708;2022-08-03T04:56:12;99350.56;;;24.34;86.02
2681;BME280;1350;42.134;24.708;2022-08-03T04:58:39;99345.66;;;24.22;85.58
2681;BME280;1350;42.134;24.708;2022-08-03T05:01:06;99346.59;;;24.53;85.47
2681;BME280;1350;42.134;24.708;2022-08-03T05:03:34;99350.81;;;24.71;83.90
2681;BME280;1350;42.134;24.708;2022-08-03T05:06:01;99357.63;;;24.59;84.28
2681;BME280;1350;42.134;24.708;2022-08-03T05:08:28;99364.06;;;24.66;84.10
2681;BME280;1350;42.134;24.708;2022-08-03T05:10:55;99360.66;;;24.64;82.97
2681;BME280;1350;42.134;24.708;2022-08-03T05:13:22;99363.53;;;24.63;83.55
2681;BME280;1350;42.134;24.708;2022-08-03T05:15:49;99366.56;;;24.76;82.64
2681;BME280;1350;42.134;24.708;2022-08-03T05:18:16;99362.34;;;24.73;82.48
2681;BME280;1350;42.134;24.708;2022-08-03T05:20:44;99361.38;;;24.50;83.44
2681;BME280;1350;42.134;24.708;2022-08-03T05:23:11;99357.81;;;24.42;84.65
2681;BME280;1350;42.134;24.708;2022-08-03T05:25:37;99363.47;;;24.32;84.51
2681;BME280;1350;42.134;24.708;2022-08-03T05:28:04;99362.25;;;24.27;85.77
2681;BME280;1350;42.134;24.708;2022-08-03T05:30:31;99367.84;;;24.33;85.48
2681;BME280;1350;42.134;24.708;2022-08-03T05:32:57;99371.25;;;24.35;84.71
2681;BME280;1350;42.134;24.708;2022-08-03T05:35:25;99373.44;;;24.32;84.94
2681;BME280;1350;42.134;24.708;2022-08-03T05:37:54;99378.16;;;24.46;84.21
2681;BME280;1350;42.134;24.708;2022-08-03T05:40:21;99382.19;;;24.58;84.28
2681;BME280;1350;42.134;24.708;2022-08-03T05:42:48;99380.81;;;24.62;83.46
2681;BME280;1350;42.134;24.708;2022-08-03T05:45:15;99383.53;;;24.70;83.72
2681;BME280;1350;42.134;24.708;2022-08-03T05:47:43;99388.78;;;24.79;82.03
2681;BME280;1350;42.134;24.708;2022-08-03T05:50:10;99390.25;;;24.90;81.42
2681;BME280;1350;42.134;24.708;2022-08-03T05:52:38;99395.31;;;25.01;81.66
2681;BME280;1350;42.134;24.708;2022-08-03T05:55:07;99393.72;;;25.15;80.77
2681;BME280;1350;42.134;24.708;2022-08-03T05:57:34;99387.44;;;25.14;80.38
2681;BME280;1350;42.134;24.708;2022-08-03T06:00:03;99388.47;;;25.13;79.25
2681;BME280;1350;42.134;24.708;2022-08-03T06:02:30;99383.19;;;25.20;79.07
2681;BME280;1350;42.134;24.708;2022-08-03T06:04:57;99395.84;;;25.35;77.93
2681;BME280;1350;42.134;24.708;2022-08-03T06:07:24;99393.56;;;25.47;77.57
2681;BME280;1350;42.134;24.708;2022-08-03T06:09:51;99387.00;;;25.64;77.96
2681;BME280;1350;42.134;24.708;2022-08-03T06:12:19;99396.38;;;25.61;76.64
2681;BME280;1350;42.134;24.708;2022-08-03T06:14:46;99394.56;;;25.54;77.15
2681;BME280;1350;42.134;24.708;2022-08-03T06:17:12;99394.66;;;25.60;76.53
2681;BME280;1350;42.134;24.708;2022-08-03T06:19:39;99391.16;;;25.74;76.53
2681;BME280;1350;42.134;24.708;2022-08-03T06:22:06;99391.56;;;25.94;76.36
2681;BME280;1350;42.134;24.708;2022-08-03T06:24:33;99394.75;;;26.20;74.96
2681;BME280;1350;42.134;24.708;2022-08-03T06:27:00;99397.13;;;26.23;73.88
2681;BME280;1350;42.134;24.708;2022-08-03T06:29:28;99395.94;;;26.40;73.00
2681;BME280;1350;42.134;24.708;2022-08-03T06:31:54;99397.56;;;26.64;71.84
2681;BME280;1350;42.134;24.708;2022-08-03T06:34:21;99406.88;;;26.69;72.25
2681;BME280;1350;42.134;24.708;2022-08-03T06:36:48;99403.00;;;26.64;72.35
2681;BME280;1350;42.134;24.708;2022-08-03T06:39:15;99397.63;;;26.56;70.73
2681;BME280;1350;42.134;24.708;2022-08-03T06:41:43;99406.88;;;26.69;70.48
2681;BME280;1350;42.134;24.708;2022-08-03T06:44:10;99405.56;;;26.80;70.93
2681;BME280;1350;42.134;24.708;2022-08-03T06:46:38;99411.28;;;26.70;71.19
2681;BME280;1350;42.134;24.708;2022-08-03T06:49:05;99408.44;;;26.64;71.82
2681;BME280;1350;42.134;24.708;2022-08-03T06:51:32;99402.94;;;26.72;69.56
2681;BME280;1350;42.134;24.708;2022-08-03T06:53:59;99401.72;;;26.89;68.95
2681;BME280;1350;42.134;24.708;2022-08-03T06:56:26;99415.13;;;27.05;67.73
2681;BME280;1350;42.134;24.708;2022-08-03T06:58:53;99412.97;;;27.00;67.22
2681;BME280;1350;42.134;24.708;2022-08-03T07:01:20;99400.31;;;27.07;65.17
2681;BME280;1350;42.134;24.708;2022-08-03T07:03:48;99401.34;;;27.35;65.01
2681;BME280;1350;42.134;24.708;2022-08-03T07:06:14;99394.41;;;27.54;63.66
2681;BME280;1350;42.134;24.708;2022-08-03T07:08:41;99399.47;;;27.92;61.65
2681;BME280;1350;42.134;24.708;2022-08-03T07:11:08;99400.19;;;28.01;61.61
2681;BME280;1350;42.134;24.708;2022-08-03T07:13:35;99395.69;;;28.63;60.62
2681;BME280;1350;42.134;24.708;2022-08-03T07:16:02;99399.44;;;29.24;56.82
2681;BME280;1350;42.134;24.708;2022-08-03T07:18:28;99395.84;;;29.64;54.19
2681;BME280;1350;42.134;24.708;2022-08-03T07:20:56;99401.13;;;29.72;53.04
2681;BME280;1350;42.134;24.708;2022-08-03T07:23:23;99399.63;;;29.70;52.76
2681;BME280;1350;42.134;24.708;2022-08-03T07:25:50;99392.94;;;29.92;52.40
2681;BME280;1350;42.134;24.708;2022-08-03T07:28:17;99399.06;;;30.00;52.10
2681;BME280;1350;42.134;24.708;2022-08-03T07:30:44;99397.78;;;30.09;51.35
2681;BME280;1350;42.134;24.708;2022-08-03T07:33:11;99409.00;;;30.53;50.60
2681;BME280;1350;42.134;24.708;2022-08-03T07:35:38;99396.56;;;30.96;49.56
2681;BME280;1350;42.134;24.708;2022-08-03T07:38:06;99405.22;;;30.67;49.54
2681;BME280;1350;42.134;24.708;2022-08-03T07:40:33;99406.00;;;31.07;49.24
2681;BME280;1350;42.134;24.708;2022-08-03T07:42:59;99409.34;;;31.66;48.35
2681;BME280;1350;42.134;24.708;2022-08-03T07:45:28;99411.75;;;32.25;46.93
2681;BME280;1350;42.134;24.708;2022-08-03T07:47:55;99412.50;;;32.88;46.38
2681;BME280;1350;42.134;24.708;2022-08-03T07:50:21;99410.16;;;32.91;46.27
2681;BME280;1350;42.134;24.708;2022-08-03T07:52:48;99416.28;;;33.29;45.73
2681;BME280;1350;42.134;24.708;2022-08-03T07:55:18;99413.44;;;33.36;44.97
2681;BME280;1350;42.134;24.708;2022-08-03T07:57:46;99412.50;;;33.78;45.01
2681;BME280;1350;42.134;24.708;2022-08-03T08:00:14;99425.38;;;33.48;45.12
2681;BME280;1350;42.134;24.708;2022-08-03T08:02:42;99412.13;;;32.59;45.95
2681;BME280;1350;42.134;24.708;2022-08-03T08:05:10;99420.28;;;33.15;45.33
2681;BME280;1350;42.134;24.708;2022-08-03T08:07:37;99417.34;;;33.28;45.89
2681;BME280;1350;42.134;24.708;2022-08-03T08:10:05;99414.63;;;33.46;44.96
2681;BME280;1350;42.134;24.708;2022-08-03T08:12:34;99418.66;;;33.62;44.88
2681;BME280;1350;42.134;24.708;2022-08-03T08:15:00;99418.56;;;32.96;45.74
2681;BME280;1350;42.134;24.708;2022-08-03T08:17:27;99421.38;;;32.90;46.03
2681;BME280;1350;42.134;24.708;2022-08-03T08:19:54;99411.50;;;32.57;47.48
2681;BME280;1350;42.134;24.708;2022-08-03T08:22:21;99417.41;;;33.22;46.18
2681;BME280;1350;42.134;24.708;2022-08-03T08:24:48;99412.66;;;32.50;47.08
2681;BME280;1350;42.134;24.708;2022-08-03T08:27:14;99411.66;;;32.13;47.85
2681;BME280;1350;42.134;24.708;2022-08-03T08:29:43;99408.97;;;32.00;48.12
2681;BME280;1350;42.134;24.708;2022-08-03T08:32:10;99402.44;;;32.57;47.48
2681;BME280;1350;42.134;24.708;2022-08-03T08:34:40;99406.94;;;32.20;47.60
2681;BME280;1350;42.134;24.708;2022-08-03T08:37:07;99407.22;;;32.86;47.58
2681;BME280;1350;42.134;24.708;2022-08-03T08:39:34;99405.25;;;32.50;47.58
2681;BME280;1350;42.134;24.708;2022-08-03T08:42:01;99406.38;;;33.10;46.28
2681;BME280;1350;42.134;24.708;2022-08-03T08:44:28;99408.25;;;32.92;45.89
2681;BME280;1350;42.134;24.708;2022-08-03T08:46:59;99402.44;;;32.57;47.06
2681;BME280;1350;42.134;24.708;2022-08-03T08:49:28;99407.97;;;33.00;46.89
2681;BME280;1350;42.134;24.708;2022-08-03T08:51:55;99401.56;;;32.81;46.57
2681;BME280;1350;42.134;24.708;2022-08-03T08:54:24;99410.47;;;33.19;46.52
2681;BME280;1350;42.134;24.708;2022-08-03T08:56:52;99407.34;;;33.16;45.97
2681;BME280;1350;42.134;24.708;2022-08-03T08:59:24;99420.44;;;33.38;44.63
2681;BME280;1350;42.134;24.708;2022-08-03T09:01:50;99410.19;;;33.27;44.65
2681;BME280;1350;42.134;24.708;2022-08-03T09:04:23;99411.13;;;33.39;44.04
2681;BME280;1350;42.134;24.708;2022-08-03T09:06:51;99408.88;;;33.48;44.73
2681;BME280;1350;42.134;24.708;2022-08-03T09:09:18;99415.22;;;33.48;45.16
2681;BME280;1350;42.134;24.708;2022-08-03T09:11:44;99410.31;;;32.96;45.95
2681;BME280;1350;42.134;24.708;2022-08-03T09:14:13;99404.91;;;32.83;46.16
2681;BME280;1350;42.134;24.708;2022-08-03T09:16:54;99404.84;;;33.50;45.03
2681;BME280;1350;42.134;24.708;2022-08-03T09:19:23;99399.50;;;34.14;44.58
2681;BME280;1350;42.134;24.708;2022-08-03T09:22:06;99395.56;;;32.66;46.00
2681;BME280;1350;42.134;24.708;2022-08-03T09:24:33;99398.13;;;33.46;45.09
2681;BME280;1350;42.134;24.708;2022-08-03T09:27:00;99386.06;;;34.06;44.18
2681;BME280;1350;42.134;24.708;2022-08-03T09:29:30;99387.25;;;34.63;43.77
2681;BME280;1350;42.134;24.708;2022-08-03T09:32:00;99375.88;;;35.06;43.02
2681;BME280;1350;42.134;24.708;2022-08-03T09:34:29;99386.41;;;34.40;43.21
2681;BME280;1350;42.134;24.708;2022-08-03T09:36:56;99385.00;;;34.95;42.44
2681;BME280;1350;42.134;24.708;2022-08-03T09:39:24;99376.13;;;34.70;41.79
2681;BME280;1350;42.134;24.708;2022-08-03T09:42:04;99369.44;;;34.24;42.93
2681;BME280;1350;42.134;24.708;2022-08-03T09:44:33;99373.25;;;34.99;43.07
2681;BME280;1350;42.134;24.708;2022-08-03T09:47:00;99374.69;;;35.02;41.95
2681;BME280;1350;42.134;24.708;2022-08-03T09:49:28;99373.31;;;35.27;41.28
2681;BME280;1350;42.134;24.708;2022-08-03T09:51:55;99365.88;;;35.28;41.36
2681;BME280;1350;42.134;24.708;2022-08-03T09:54:25;99369.69;;;34.87;41.66
2681;BME280;1350;42.134;24.708;2022-08-03T09:56:52;99367.44;;;35.24;40.89
2681;BME280;1350;42.134;24.708;2022-08-03T09:59:23;99365.56;;;35.52;40.81
2681;BME280;1350;42.134;24.708;2022-08-03T10:01:50;99358.13;;;34.79;41.86
2681;BME280;1350;42.134;24.708;2022-08-03T10:04:17;99359.09;;;34.84;42.07
2681;BME280;1350;42.134;24.708;2022-08-03T10:07:01;99361.25;;;34.48;42.18
2681;BME280;1350;42.134;24.708;2022-08-03T10:09:28;99360.84;;;34.33;42.70
2681;BME280;1350;42.134;24.708;2022-08-03T10:11:55;99359.00;;;34.03;42.90
2681;BME280;1350;42.134;24.708;2022-08-03T10:14:24;99354.44;;;33.97;43.32
2681;BME280;1350;42.134;24.708;2022-08-03T10:16:54;99357.63;;;34.24;42.80
2681;BME280;1350;42.134;24.708;2022-08-03T10:19:21;99359.56;;;33.94;43.02
2681;BME280;1350;42.134;24.708;2022-08-03T10:21:54;99345.84;;;34.05;43.39
2681;BME280;1350;42.134;24.708;2022-08-03T10:24:24;99357.91;;;33.93;43.21
2681;BME280;1350;42.134;24.708;2022-08-03T10:27:01;99349.78;;;34.09;43.23
2681;BME280;1350;42.134;24.708;2022-08-03T10:29:33;99351.41;;;33.87;44.00
2681;BME280;1350;42.134;24.708;2022-08-03T10:32:03;99345.38;;;34.08;43.00
2681;BME280;1350;42.134;24.708;2022-08-03T10:34:36;99340.44;;;33.99;44.29
2681;BME280;1350;42.134;24.708;2022-08-03T10:37:09;99340.00;;;34.13;43.24
2681;BME280;1350;42.134;24.708;2022-08-03T10:39:38;99344.28;;;34.09;43.74
2681;BME280;1350;42.134;24.708;2022-08-03T10:42:19;99338.78;;;34.09;43.42
2681;BME280;1350;42.134;24.708;2022-08-03T10:44:49;99345.72;;;34.00;43.77
2681;BME280;1350;42.134;24.708;2022-08-03T10:47:18;99344.75;;;34.06;44.56
2681;BME280;1350;42.134;24.708;2022-08-03T10:49:47;99343.34;;;33.74;44.42
2681;BME280;1350;42.134;24.708;2022-08-03T10:52:15;99341.56;;;34.33;43.46
2681;BME280;1350;42.134;24.708;2022-08-03T10:54:43;99341.97;;;34.82;43.25
2681;BME280;1350;42.134;24.708;2022-08-03T10:57:45;99329.75;;;35.41;41.50
2681;BME280;1350;42.134;24.708;2022-08-03T11:00:13;99335.47;;;35.51;41.66
2681;BME280;1350;42.134;24.708;2022-08-03T11:03:09;99327.06;;;35.74;42.07
2681;BME280;1350;42.134;24.708;2022-08-03T11:05:38;99323.53;;;36.23;41.33
2681;BME280;1350;42.134;24.708;2022-08-03T11:08:27;99325.44;;;35.61;40.66
2681;BME280;1350;42.134;24.708;2022-08-03T11:10:59;99322.41;;;34.72;41.51
2681;BME280;1350;42.134;24.708;2022-08-03T11:13:28;99320.03;;;35.38;41.50
2681;BME280;1350;42.134;24.708;2022-08-03T11:16:00;99316.94;;;35.35;40.80
2681;BME280;1350;42.134;24.708;2022-08-03T11:18:27;99315.13;;;35.40;40.89
2681;BME280;1350;42.134;24.708;2022-08-03T11:20:56;99316.53;;;36.32;39.40
2681;BME280;1350;42.134;24.708;2022-08-03T11:23:41;99318.81;;;36.90;37.99
2681;BME280;1350;42.134;24.708;2022-08-03T11:26:13;99306.34;;;37.31;37.68
2681;BME280;1350;42.134;24.708;2022-08-03T11:28:40;99300.50;;;37.49;37.05
2681;BME280;1350;42.134;24.708;2022-08-03T11:31:44;99307.75;;;37.55;37.16
2681;BME280;1350;42.134;24.708;2022-08-03T11:34:16;99293.53;;;36.81;37.28
2681;BME280;1350;42.134;24.708;2022-08-03T11:37:17;99283.66;;;37.29;37.43
2681;BME280;1350;42.134;24.708;2022-08-03T11:39:49;99287.47;;;37.22;37.90
2681;BME280;1350;42.134;24.708;2022-08-03T11:42:42;99284.72;;;37.28;37.30
2681;BME280;1350;42.134;24.708;2022-08-03T11:45:11;99285.19;;;37.41;37.76
2681;BME280;1350;42.134;24.708;2022-08-03T11:47:40;99286.84;;;37.20;38.06
2681;BME280;1350;42.134;24.708;2022-08-03T11:50:07;99294.63;;;37.45;38.04
2681;BME280;1350;42.134;24.708;2022-08-03T11:52:40;99282.94;;;37.38;36.87
2681;BME280;1350;42.134;24.708;2022-08-03T11:55:14;99287.94;;;37.19;37.25
2681;BME280;1350;42.134;24.708;2022-08-03T11:57:41;99283.75;;;36.95;36.71
2681;BME280;1350;42.134;24.708;2022-08-03T12:00:27;99272.03;;;36.67;37.29
2681;BME280;1350;42.134;24.708;2022-08-03T12:03:00;99278.41;;;36.67;37.58
2681;BME280;1350;42.134;24.708;2022-08-03T12:05:35;99276.75;;;36.17;37.95
2681;BME280;1350;42.134;24.708;2022-08-03T12:08:02;99272.75;;;35.46;38.12
2681;BME280;1350;42.134;24.708;2022-08-03T12:10:31;99273.84;;;35.06;38.64
2681;BME280;1350;42.134;24.708;2022-08-03T12:12:59;99273.50;;;35.02;38.88
2681;BME280;1350;42.134;24.708;2022-08-03T12:15:26;99262.81;;;35.06;38.51
2681;BME280;1350;42.134;24.708;2022-08-03T12:17:54;99263.44;;;34.96;39.63
2681;BME280;1350;42.134;24.708;2022-08-03T12:20:23;99256.66;;;34.87;38.85
2681;BME280;1350;42.134;24.708;2022-08-03T12:22:50;99260.59;;;34.91;39.33
2681;BME280;1350;42.134;24.708;2022-08-03T12:25:21;99257.47;;;34.88;39.70
2681;BME280;1350;42.134;24.708;2022-08-03T12:27:50;99265.25;;;34.91;39.27
2681;BME280;1350;42.134;24.708;2022-08-03T12:30:17;99258.66;;;34.80;39.71
2681;BME280;1350;42.134;24.708;2022-08-03T12:32:44;99260.59;;;34.80;39.09
2681;BME280;1350;42.134;24.708;2022-08-03T12:35:21;99258.44;;;34.93;38.24
2681;BME280;1350;42.134;24.708;2022-08-03T12:37:49;99254.06;;;35.09;38.28
2681;BME280;1350;42.134;24.708;2022-08-03T12:40:23;99256.41;;;35.17;37.27
2681;BME280;1350;42.134;24.708;2022-08-03T12:42:52;99251.56;;;35.35;37.60
2681;BME280;1350;42.134;24.708;2022-08-03T12:45:23;99248.53;;;35.65;37.58
2681;BME280;1350;42.134;24.708;2022-08-03T12:47:52;99246.97;;;36.02;36.78
2681;BME280;1350;42.134;24.708;2022-08-03T12:50:23;99245.28;;;36.18;36.45
2681;BME280;1350;42.134;24.708;2022-08-03T12:52:50;99244.28;;;36.40;36.00
2681;BME280;1350;42.134;24.708;2022-08-03T12:55:18;99236.22;;;35.72;37.24
2681;BME280;1350;42.134;24.708;2022-08-03T12:57:45;99232.56;;;36.33;35.51
2681;BME280;1350;42.134;24.708;2022-08-03T13:00:16;99228.25;;;36.80;35.51
2681;BME280;1350;42.134;24.708;2022-08-03T13:02:43;99234.50;;;36.92;35.83
2681;BME280;1350;42.134;24.708;2022-08-03T13:05:11;99232.66;;;35.72;35.39
2681;BME280;1350;42.134;24.708;2022-08-03T13:07:42;99223.47;;;36.00;34.71
2681;BME280;1350;42.134;24.708;2022-08-03T13:10:11;99227.03;;;36.17;35.19
2681;BME280;1350;42.134;24.708;2022-08-03T13:12:48;99227.69;;;36.24;35.45
2681;BME280;1350;42.134;24.708;2022-08-03T13:15:17;99225.03;;;36.12;35.39
2681;BME280;1350;42.134;24.708;2022-08-03T13:17:44;99219.66;;;35.72;35.87
2681;BME280;1350;42.134;24.708;2022-08-03T13:20:10;99212.47;;;35.55;35.59
2681;BME280;1350;42.134;24.708;2022-08-03T13:22:37;99222.97;;;35.41;36.54
2681;BME280;1350;42.134;24.708;2022-08-03T13:25:04;99215.91;;;35.34;36.13